Dayton, Oregon
Current Conditions -  °F | °C
As of 10:53 PM on Thursday 30 Oct 2014 (Local Time) from KMMV Reporting Station
Light Rain Light Rain  
Wind Chill: 57°   Ceiling: 7500
Heat Index: 57°   Visibility: 9mi
Dew Point: 55°   Wind: 5mph
Humidity: 93%   Direction: 220°SW
Pressure: 29.79"   Gusts: NA
Location:  45.22°N, 123.08°W
Report Text: KMMV 310553Z AUTO 22004KT 9SM -RA OVC075 14/13 A2979 RMK AO2 SLP087 P0006 60025 T01390128 10161 20139 56004
Loading
Personal Weather Stations






























Interactive Weather Map
Tropical Storm Tracking
New forecast layout! Learn more

10-Day Weather Forecast

Advertisements
Track Severe Weather on mobile